Time;durP1;ratioP1;P1;durP2;ratioP2;P2;SDS_P1;SDS_P2;PMS_P1;PMS_P2;Temp;Humidity;BMP_temperature;BMP_pressure;BME280_temperature;BME280_humidity;BME280_pressure;Samples;Min_cycle;Max_cycle;Signal;HPM_P1;HPM_P2
2021/12/22 00:00:14;;;;;;;28.45;16.70;;;;;;;0.26;84.29;102541.94;5056050;28;20060;-49
2021/12/22 00:02:46;;;;;;;23.75;16.90;;;;;;;0.26;83.71;102549.97;5038334;28;20049;-49
2021/12/22 00:05:22;;;;;;;24.27;16.75;;;;;;;0.26;83.72;102541.94;5035926;28;20045;-49
2021/12/22 00:07:51;;;;;;;27.70;17.25;;;;;;;0.27;84.11;102546.31;5037058;28;20045;-48
2021/12/22 00:10:19;;;;;;;24.38;16.13;;;;;;;0.27;83.39;102543.63;5045177;28;20052;-47
2021/12/22 00:12:48;;;;;;;28.52;16.80;;;;;;;0.28;83.38;102544.47;5055664;28;20038;-51
2021/12/22 00:15:16;;;;;;;23.88;16.42;;;;;;;0.27;84.12;102538.28;5055571;28;20041;-49
2021/12/22 00:17:44;;;;;;;24.85;16.92;;;;;;;0.28;83.72;102544.47;5055848;28;20384;-49
2021/12/22 00:20:13;;;;;;;26.35;17.42;;;;;;;0.24;83.67;102549.31;5054768;28;20040;-52
2021/12/22 00:22:41;;;;;;;28.85;17.45;;;;;;;0.20;83.05;102548.78;5055828;28;20198;-49
2021/12/22 00:25:09;;;;;;;27.73;16.60;;;;;;;0.20;83.76;102543.41;5055558;28;20057;-49
2021/12/22 00:27:37;;;;;;;25.98;16.35;;;;;;;0.23;83.31;102552.97;5055459;28;20053;-49
2021/12/22 00:30:06;;;;;;;24.80;16.60;;;;;;;0.23;83.37;102552.97;5043835;28;20428;-49
2021/12/22 00:32:36;;;;;;;26.60;17.23;;;;;;;0.23;83.52;102546.78;5051266;28;20840;-49
2021/12/22 00:35:04;;;;;;;22.33;15.57;;;;;;;0.22;83.51;102540.59;5055648;28;20041;-48
2021/12/22 00:37:33;;;;;;;25.88;16.67;;;;;;;0.23;83.08;102536.91;5054996;28;20472;-50
2021/12/22 00:40:01;;;;;;;25.55;16.38;;;;;;;0.20;83.37;102540.72;5054802;28;20040;-48
2021/12/22 00:42:28;;;;;;;27.45;16.13;;;;;;;0.21;83.54;102537.03;5055260;28;20509;-44
2021/12/22 00:44:56;;;;;;;23.77;15.95;;;;;;;0.20;82.79;102537.22;5055435;28;20045;-48
2021/12/22 00:47:28;;;;;;;26.00;17.27;;;;;;;0.21;82.62;102538.88;5055338;28;20052;-47
2021/12/22 00:49:57;;;;;;;26.70;16.48;;;;;;;0.21;82.99;102545.09;5043051;28;20041;-48
2021/12/22 00:52:25;;;;;;;25.13;16.65;;;;;;;0.20;83.05;102538.06;5032539;28;20450;-46
2021/12/22 00:54:53;;;;;;;26.00;16.10;;;;;;;0.19;82.82;102547.09;5034938;28;20451;-47
2021/12/22 00:57:21;;;;;;;24.92;17.02;;;;;;;0.17;82.77;102540.22;5035180;28;20098;-48
2021/12/22 00:59:48;;;;;;;28.27;17.25;;;;;;;0.11;82.62;102544.34;5042540;28;20141;-48
2021/12/22 01:02:18;;;;;;;27.45;16.90;;;;;;;0.03;83.01;102541.63;5041166;28;20045;-48
2021/12/22 01:04:46;;;;;;;25.70;16.40;;;;;;;0.01;82.71;102545.47;5034818;28;20103;-47
2021/12/22 01:07:15;;;;;;;23.52;15.68;;;;;;;-0.01;82.81;102548.28;5034894;28;20053;-47
2021/12/22 01:09:43;;;;;;;26.48;17.00;;;;;;;-0.02;83.69;102544.75;5043387;28;20567;-47
2021/12/22 01:12:11;;;;;;;27.55;16.45;;;;;;;0.03;83.24;102540.78;5054854;28;20049;-48
2021/12/22 01:14:39;;;;;;;26.70;17.10;;;;;;;0.05;83.15;102539.63;5054856;28;20048;-50
2021/12/22 01:17:10;;;;;;;27.13;16.83;;;;;;;0.06;82.69;102535.94;5053684;28;20064;-47
2021/12/22 01:20:03;;;;;;;25.73;16.73;;;;;;;0.09;83.27;102545.50;5054805;28;20045;-46
2021/12/22 01:25:06;;;;;;;31.00;17.38;;;;;;;0.12;83.11;102542.50;5034426;28;20055;-51
2021/12/22 01:27:39;;;;;;;24.17;16.70;;;;;;;0.12;83.11;102539.81;5054284;28;20049;-48
2021/12/22 01:30:11;;;;;;;27.33;16.88;;;;;;;0.14;81.91;102535.16;5054124;28;20102;-49
2021/12/22 01:32:40;;;;;;;29.85;17.77;;;;;;;0.11;82.73;102532.78;5038604;28;20037;-47
2021/12/22 01:35:10;;;;;;;27.85;17.23;;;;;;;0.04;82.24;102537.09;5034470;28;20103;-48
2021/12/22 01:37:38;;;;;;;30.55;17.92;;;;;;;-0.04;82.63;102524.47;5034577;28;20037;-45
2021/12/22 01:40:08;;;;;;;26.42;17.70;;;;;;;-0.10;82.62;102536.66;5034243;28;20046;-48
2021/12/22 01:42:36;;;;;;;29.33;18.63;;;;;;;-0.15;81.92;102538.94;5035077;28;20087;-49
2021/12/22 01:45:30;;;;;;;27.85;18.50;;;;;;;-0.16;82.85;102531.09;5034126;28;20045;-45
2021/12/22 01:50:51;;;;;;;29.58;18.30;;;;;;;-0.11;83.19;102534.97;5033839;28;20388;-47
2021/12/22 01:53:22;;;;;;;27.80;17.75;;;;;;;-0.08;83.52;102537.34;5033452;28;20042;-46
2021/12/22 01:56:01;;;;;;;25.73;16.98;;;;;;;-0.01;82.67;102529.53;5034119;28;20053;-48
2021/12/22 01:58:41;;;;;;;28.27;17.92;;;;;;;0.04;83.14;102531.75;5032634;28;20061;-46
2021/12/22 02:01:10;;;;;;;29.85;18.70;;;;;;;0.07;82.75;102536.78;5037813;28;20053;-48
2021/12/22 02:03:39;;;;;;;30.40;17.98;;;;;;;0.07;82.58;102532.25;5045575;28;20399;-47
2021/12/22 02:06:08;;;;;;;30.70;18.35;;;;;;;0.06;82.34;102529.75;5033732;28;20140;-48
2021/12/22 02:08:37;;;;;;;27.63;17.63;;;;;;;-0.01;82.32;102530.34;5033545;28;20114;-47
2021/12/22 02:11:06;;;;;;;28.60;17.52;;;;;;;-0.04;81.93;102541.38;5034050;28;20049;-51
2021/12/22 02:13:38;;;;;;;29.73;18.08;;;;;;;-0.09;82.32;102538.34;5035651;28;20575;-48
2021/12/22 02:16:10;;;;;;;28.98;18.00;;;;;;;-0.08;83.02;102545.38;5053369;28;20442;-44
2021/12/22 02:18:42;;;;;;;27.85;17.55;;;;;;;-0.09;82.12;102535.66;5053374;28;20049;-44
2021/12/22 02:21:10;;;;;;;30.15;17.73;;;;;;;-0.11;81.99;102543.00;5053308;28;20458;-49
2021/12/22 02:23:38;;;;;;;30.50;17.65;;;;;;;-0.12;82.45;102541.34;5053191;28;20109;-48
2021/12/22 02:26:14;;;;;;;26.58;17.42;;;;;;;-0.15;82.85;102543.47;5038377;28;20041;-48
2021/12/22 02:28:46;;;;;;;31.15;18.83;;;;;;;-0.16;82.27;102539.97;5033226;28;20045;-48
2021/12/22 02:31:17;;;;;;;31.02;17.90;;;;;;;-0.12;82.87;102541.34;5037532;28;20188;-49
2021/12/22 02:33:48;;;;;;;29.05;17.67;;;;;;;-0.12;82.02;102546.69;5053140;28;20446;-48
2021/12/22 02:38:55;;;;;;;28.25;17.83;;;;;;;-0.14;82.06;102537.97;5053323;28;20095;-49
2021/12/22 02:41:27;;;;;;;28.38;17.77;;;;;;;-0.15;81.87;102533.59;5052983;28;20041;-48
2021/12/22 02:43:56;;;;;;;30.60;18.17;;;;;;;-0.19;81.40;102532.25;5052845;28;20045;-44
2021/12/22 02:46:28;;;;;;;34.08;17.52;;;;;;;-0.22;82.10;102538.75;5050713;28;20036;-48
2021/12/22 02:48:56;;;;;;;33.15;18.65;;;;;;;-0.19;82.28;102532.25;5052838;28;20049;-48
2021/12/22 02:51:28;;;;;;;35.05;18.50;;;;;;;-0.17;81.88;102532.91;5045547;28;20033;-46
2021/12/22 02:54:13;;;;;;;32.33;17.45;;;;;;;-0.14;82.11;102534.47;5032727;28;20106;-47
2021/12/22 02:56:55;;;;;;;26.25;17.83;;;;;;;-0.14;81.63;102529.94;5036854;28;20049;-47
2021/12/22 03:02:19;;;;;;;27.67;17.98;;;;;;;-0.18;81.23;102527.72;5041620;28;20118;-47
2021/12/22 03:04:56;;;;;;;27.00;17.85;;;;;;;-0.20;81.71;102530.53;5033206;28;20048;-44
2021/12/22 03:07:28;;;;;;;28.42;18.25;;;;;;;-0.21;82.05;102534.22;5033373;28;20182;-47
2021/12/22 03:10:03;;;;;;;35.78;18.48;;;;;;;-0.18;81.38;102538.44;5033033;28;20107;-47
2021/12/22 03:12:34;;;;;;;29.50;19.58;;;;;;;-0.24;81.14;102540.72;5032710;28;20098;-47
2021/12/22 03:15:04;;;;;;;31.98;19.25;;;;;;;-0.26;81.10;102541.88;5032321;28;20110;-48
2021/12/22 03:17:32;;;;;;;32.80;18.88;;;;;;;-0.26;81.25;102544.56;5033623;28;20499;-51
2021/12/22 03:20:01;;;;;;;30.40;18.92;;;;;;;-0.29;81.20;102548.41;5032409;28;20045;-48
2021/12/22 03:22:33;;;;;;;27.67;17.42;;;;;;;-0.40;81.13;102551.28;5032500;28;20049;-50
2021/12/22 03:25:01;;;;;;;28.52;17.55;;;;;;;-0.46;81.16;102544.72;5036050;28;20091;-48
2021/12/22 03:27:28;;;;;;;32.53;17.83;;;;;;;-0.46;81.98;102544.72;5052576;28;20036;-46
2021/12/22 03:29:56;;;;;;;31.00;19.15;;;;;;;-0.40;82.35;102550.47;5049989;28;20404;-49
2021/12/22 03:32:24;;;;;;;32.75;18.60;;;;;;;-0.43;81.41;102551.59;5038232;28;20045;-47
2021/12/22 03:34:51;;;;;;;30.55;18.33;;;;;;;-0.43;82.20;102552.44;5032321;28;20404;-49
2021/12/22 03:37:19;;;;;;;33.22;19.05;;;;;;;-0.43;81.67;102541.72;5032717;28;20038;-48
2021/12/22 03:39:47;;;;;;;31.35;17.98;;;;;;;-0.43;81.69;102548.94;5041693;28;20415;-49
2021/12/22 03:42:15;;;;;;;35.40;19.17;;;;;;;-0.46;81.49;102547.41;5052149;28;20045;-48
2021/12/22 03:44:43;;;;;;;31.95;19.25;;;;;;;-0.45;81.53;102545.56;5052207;28;20041;-47
2021/12/22 03:47:11;;;;;;;30.88;18.17;;;;;;;-0.51;80.67;102538.97;5036319;28;20487;-45
2021/12/22 03:49:39;;;;;;;31.27;18.98;;;;;;;-0.60;81.57;102534.53;5032479;28;20095;-50
2021/12/22 03:52:07;;;;;;;30.75;18.80;;;;;;;-0.62;81.58;102546.41;5031830;28;20046;-48
2021/12/22 03:54:35;;;;;;;29.10;17.35;;;;;;;-0.65;81.96;102539.47;5032176;28;20045;-48
2021/12/22 03:57:03;;;;;;;29.15;18.40;;;;;;;-0.59;81.35;102538.06;5032355;28;20111;-46
2021/12/22 03:59:30;;;;;;;30.40;17.23;;;;;;;-0.55;82.32;102545.63;5032125;28;20053;-46
2021/12/22 04:01:58;;;;;;;32.13;18.13;;;;;;;-0.48;81.76;102537.81;5043227;28;20097;-52
2021/12/22 04:04:26;;;;;;;31.83;18.40;;;;;;;-0.42;81.45;102537.22;5052040;28;20045;-59
2021/12/22 04:06:54;;;;;;;32.20;18.75;;;;;;;-0.40;80.73;102543.25;5052886;28;20450;-48
2021/12/22 04:09:27;;;;;;;31.85;17.50;;;;;;;-0.40;81.48;102537.06;5052321;28;20074;-46
2021/12/22 04:11:55;;;;;;;30.65;18.15;;;;;;;-0.45;80.84;102533.00;5050645;28;20074;-48
2021/12/22 04:14:23;;;;;;;27.15;17.48;;;;;;;-0.49;81.04;102531.63;5051700;28;20090;-48
2021/12/22 04:16:50;;;;;;;30.88;19.10;;;;;;;-0.49;80.69;102545.00;5051979;28;20060;-48
2021/12/22 04:19:18;;;;;;;26.42;17.25;;;;;;;-0.50;80.79;102546.00;5051868;28;20045;-48
2021/12/22 04:21:48;;;;;;;30.45;17.40;;;;;;;-0.52;80.46;102531.94;5042704;28;20090;-47
2021/12/22 04:24:16;;;;;;;27.85;16.85;;;;;;;-0.52;81.13;102537.28;5032115;28;20049;-49
2021/12/22 04:26:44;;;;;;;31.15;18.75;;;;;;;-0.52;81.02;102536.44;5032833;28;20492;-50
2021/12/22 04:29:12;;;;;;;30.45;16.85;;;;;;;-0.51;81.24;102528.25;5035543;28;20045;-48
2021/12/22 04:31:40;;;;;;;29.27;17.40;;;;;;;-0.51;81.26;102524.72;5042746;28;20130;-48
2021/12/22 04:34:08;;;;;;;30.58;18.13;;;;;;;-0.51;80.65;102522.88;5035553;28;20484;-47
2021/12/22 04:36:38;;;;;;;27.58;16.63;;;;;;;-0.52;80.77;102515.03;5035465;28;20400;-45
2021/12/22 04:39:07;;;;;;;28.55;17.52;;;;;;;-0.52;80.63;102521.22;5035427;28;20049;-47
2021/12/22 04:41:34;;;;;;;25.83;17.13;;;;;;;-0.51;80.90;102517.53;5035510;28;20513;-47
2021/12/22 04:44:02;;;;;;;33.50;17.83;;;;;;;-0.53;81.29;102511.53;5034606;28;20123;-46
2021/12/22 04:46:31;;;;;;;31.38;18.73;;;;;;;-0.54;80.46;102507.13;5035399;28;20050;-46
2021/12/22 04:48:58;;;;;;;28.63;17.38;;;;;;;-0.53;80.63;102514.19;5035371;28;20047;-48
2021/12/22 04:51:29;;;;;;;32.50;17.35;;;;;;;-0.50;80.90;102505.00;5035191;28;20049;-46
2021/12/22 04:54:15;;;;;;;32.42;18.38;;;;;;;-0.54;80.29;102507.13;5034696;28;20091;-47
2021/12/22 04:56:42;;;;;;;34.33;18.52;;;;;;;-0.62;80.70;102503.56;5034969;28;20072;-51
2021/12/22 04:59:11;;;;;;;34.05;18.40;;;;;;;-0.69;81.46;102497.97;5034750;28;20453;-49
2021/12/22 05:01:39;;;;;;;27.50;16.70;;;;;;;-0.72;81.10;102504.47;5034729;28;20392;-49
2021/12/22 05:04:06;;;;;;;30.95;18.13;;;;;;;-0.68;81.17;102495.13;5034361;28;20029;-50
2021/12/22 05:06:35;;;;;;;31.15;18.13;;;;;;;-0.63;81.18;102496.50;5034883;28;20458;-46
2021/12/22 05:09:06;;;;;;;27.02;17.00;;;;;;;-0.63;81.14;102497.34;5035074;28;20050;-49
2021/12/22 05:11:35;;;;;;;29.48;16.45;;;;;;;-0.62;81.42;102493.69;5035006;28;20106;-47
2021/12/22 05:14:04;;;;;;;28.40;16.67;;;;;;;-0.61;80.78;102490.00;5034865;28;20083;-49
2021/12/22 05:16:33;;;;;;;27.77;15.98;;;;;;;-0.61;81.32;102495.34;5032915;28;20060;-48
2021/12/22 05:19:14;;;;;;;33.83;18.00;;;;;;;-0.58;81.32;102495.03;5034364;28;20072;-49
2021/12/22 05:21:43;;;;;;;27.60;17.00;;;;;;;-0.55;81.11;102500.13;5034375;28;20050;-50
2021/12/22 05:24:10;;;;;;;30.20;17.40;;;;;;;-0.55;81.84;102496.59;5034433;28;20469;-49
2021/12/22 05:26:38;;;;;;;28.20;16.48;;;;;;;-0.54;81.94;102500.94;5034075;28;20053;-48
2021/12/22 05:29:06;;;;;;;28.17;16.55;;;;;;;-0.56;81.39;102498.41;5034066;28;20053;-49
2021/12/22 05:31:34;;;;;;;33.85;17.45;;;;;;;-0.55;81.20;102491.25;5034055;28;20357;-49
2021/12/22 05:34:02;;;;;;;27.85;16.25;;;;;;;-0.56;82.19;102506.44;5034249;28;20557;-47
2021/12/22 05:36:31;;;;;;;28.60;16.25;;;;;;;-0.56;81.34;102495.75;5033648;28;20136;-48
2021/12/22 05:38:58;;;;;;;29.00;16.30;;;;;;;-0.56;81.44;102493.06;5033759;28;20048;-49
2021/12/22 05:41:26;;;;;;;28.75;16.55;;;;;;;-0.60;81.26;102488.16;5033696;28;20049;-48
2021/12/22 05:43:53;;;;;;;26.70;15.82;;;;;;;-0.67;81.12;102486.13;5034177;28;20057;-49
2021/12/22 05:46:21;;;;;;;28.08;16.35;;;;;;;-0.74;81.52;102484.22;5034038;28;20417;-51
2021/12/22 05:48:50;;;;;;;26.65;15.38;;;;;;;-0.76;81.75;102481.69;5033874;28;20049;-47
2021/12/22 05:51:17;;;;;;;26.95;16.15;;;;;;;-0.73;81.91;102481.34;5034091;28;20094;-48
2021/12/22 05:53:45;;;;;;;24.60;14.70;;;;;;;-0.68;81.60;102481.75;5033695;28;20045;-49
2021/12/22 05:56:13;;;;;;;27.90;15.45;;;;;;;-0.61;82.64;102470.44;5034035;28;20484;-48
2021/12/22 05:58:40;;;;;;;30.15;15.20;;;;;;;-0.57;82.08;102469.97;5033176;28;20528;-49
2021/12/22 06:01:08;;;;;;;25.80;14.95;;;;;;;-0.54;81.38;102472.34;5033489;28;20057;-48
2021/12/22 06:03:36;;;;;;;24.10;14.23;;;;;;;-0.54;81.09;102472.34;5033649;28;20052;-49
2021/12/22 06:06:04;;;;;;;26.83;14.18;;;;;;;-0.54;80.74;102480.38;5033500;28;20098;-48
2021/12/22 06:08:31;;;;;;;25.92;15.13;;;;;;;-0.58;81.64;102478.97;5033136;28;20046;-46
2021/12/22 06:10:59;;;;;;;27.23;14.43;;;;;;;-0.59;81.35;102481.84;5032598;28;20235;-46
2021/12/22 06:13:27;;;;;;;21.08;13.43;;;;;;;-0.66;81.68;102481.59;5033744;28;20045;-44
2021/12/22 06:15:59;;;;;;;25.20;14.43;;;;;;;-0.71;80.98;102476.69;5033259;28;20050;-46
2021/12/22 06:18:28;;;;;;;25.70;15.43;;;;;;;-0.74;81.04;102479.69;5033121;28;20400;-49
2021/12/22 06:20:56;;;;;;;22.83;14.27;;;;;;;-0.75;81.96;102479.84;5032996;28;20041;-51
2021/12/22 06:23:23;;;;;;;26.73;14.45;;;;;;;-0.76;81.66;102480.84;5033052;28;20504;-47
2021/12/22 06:25:51;;;;;;;23.75;13.77;;;;;;;-0.75;81.78;102495.88;5033042;28;20049;-48
2021/12/22 06:28:18;;;;;;;24.48;13.68;;;;;;;-0.76;82.25;102495.06;5033016;28;20098;-48
2021/12/22 06:30:46;;;;;;;24.20;14.43;;;;;;;-0.73;82.40;102492.06;5032815;28;20041;-51
2021/12/22 06:33:14;;;;;;;22.10;14.20;;;;;;;-0.73;81.20;102486.72;5033399;28;20392;-53
2021/12/22 06:35:41;;;;;;;27.00;13.82;;;;;;;-0.78;81.11;102483.66;5032942;28;20049;-49
2021/12/22 06:38:09;;;;;;;24.73;13.73;;;;;;;-0.84;81.78;102478.06;5032817;28;20045;-49
2021/12/22 06:40:37;;;;;;;29.10;14.85;;;;;;;-0.90;82.07;102480.34;5032803;28;20090;-48
2021/12/22 06:43:04;;;;;;;25.00;13.32;;;;;;;-0.89;81.95;102482.06;5031671;28;20095;-49
2021/12/22 06:45:32;;;;;;;25.23;14.35;;;;;;;-0.89;81.95;102487.41;5033027;28;20049;-48
2021/12/22 06:48:00;;;;;;;24.80;12.82;;;;;;;-0.88;81.88;102490.91;5032246;28;20045;-49
2021/12/22 06:50:27;;;;;;;22.38;13.13;;;;;;;-0.90;82.07;102496.41;5032221;28;20103;-45
2021/12/22 06:52:55;;;;;;;26.45;13.27;;;;;;;-0.91;81.39;102494.75;5032818;28;20049;-48
2021/12/22 06:55:23;;;;;;;24.77;14.27;;;;;;;-0.97;81.96;102494.50;5032207;28;20098;-44
2021/12/22 06:57:54;;;;;;;24.75;13.52;;;;;;;-1.01;81.78;102493.97;5032488;28;20061;-47
2021/12/22 07:00:22;;;;;;;26.52;13.85;;;;;;;-1.03;81.87;102490.59;5047458;28;20095;-47
2021/12/22 07:02:49;;;;;;;24.20;12.65;;;;;;;-1.04;82.52;102490.72;5052380;28;20524;-48
2021/12/22 07:05:19;;;;;;;23.42;12.05;;;;;;;-1.05;83.29;102492.56;5051251;28;20033;-47
2021/12/22 07:07:46;;;;;;;22.60;12.88;;;;;;;-1.06;83.07;102490.88;5052712;28;20465;-48
2021/12/22 07:10:14;;;;;;;30.92;13.05;;;;;;;-1.05;82.46;102487.22;5050715;28;20045;-48
2021/12/22 07:12:45;;;;;;;22.73;12.95;;;;;;;-1.03;82.82;102500.44;5052412;28;20045;-46
2021/12/22 07:15:14;;;;;;;23.30;12.75;;;;;;;-1.00;82.99;102492.97;5052026;28;20522;-43
2021/12/22 07:17:44;;;;;;;23.83;13.02;;;;;;;-0.96;82.01;102496.16;5052507;28;20056;-45
2021/12/22 07:20:12;;;;;;;23.20;12.93;;;;;;;-0.99;82.24;102491.97;5041208;28;20049;-48
2021/12/22 07:22:41;;;;;;;26.80;13.40;;;;;;;-1.03;81.64;102485.25;5032478;28;20103;-48
2021/12/22 07:25:10;;;;;;;23.80;12.95;;;;;;;-1.11;81.55;102479.78;5032202;28;20102;-45
2021/12/22 07:27:37;;;;;;;21.45;12.23;;;;;;;-1.18;81.80;102481.38;5032279;28;20049;-50
2021/12/22 07:30:06;;;;;;;23.05;13.15;;;;;;;-1.24;82.71;102476.66;5033122;28;20086;-48
2021/12/22 07:32:34;;;;;;;26.27;12.68;;;;;;;-1.22;82.45;102478.19;5032440;28;20042;-48
2021/12/22 07:35:19;;;;;;;24.00;12.48;;;;;;;-1.23;82.87;102486.34;5032216;28;20578;-48
2021/12/22 07:38:24;;;;;;;21.77;12.18;;;;;;;-1.19;83.18;102490.41;5031212;28;20033;-44
2021/12/22 07:40:53;;;;;;;20.80;12.00;;;;;;;-1.14;82.98;102488.13;5033393;28;20106;-45
2021/12/22 07:43:21;;;;;;;25.15;12.25;;;;;;;-1.07;82.62;102486.53;5032092;28;20466;-45
2021/12/22 07:45:50;;;;;;;19.67;11.57;;;;;;;-1.02;83.15;102481.56;5032514;28;20049;-47
2021/12/22 07:48:18;;;;;;;22.08;12.25;;;;;;;-1.00;81.94;102479.59;5032504;28;20052;-46
2021/12/22 07:50:47;;;;;;;22.45;11.77;;;;;;;-1.04;81.74;102478.19;5033337;28;20072;-49
2021/12/22 07:53:14;;;;;;;18.50;10.93;;;;;;;-1.14;82.84;102488.13;5032133;28;20045;-47
2021/12/22 07:55:42;;;;;;;22.02;12.40;;;;;;;-1.18;82.41;102481.38;5040448;28;20457;-47
2021/12/22 07:58:10;;;;;;;21.25;11.75;;;;;;;-1.16;83.11;102479.41;5051924;28;20400;-48
2021/12/22 08:00:38;;;;;;;22.05;11.60;;;;;;;-1.11;82.78;102477.97;5050455;28;20545;-48
2021/12/22 08:03:08;;;;;;;20.20;11.10;;;;;;;-1.07;82.70;102471.31;5054893;28;20040;-46
2021/12/22 08:05:56;;;;;;;20.63;11.70;;;;;;;-0.99;82.40;102472.41;5052829;28;20037;-47
2021/12/22 08:08:24;;;;;;;21.40;10.15;;;;;;;-0.92;83.25;102471.63;5035977;28;20048;-47
2021/12/22 08:10:51;;;;;;;21.50;10.38;;;;;;;-0.87;83.21;102474.72;5034970;28;20516;-48
2021/12/22 08:13:19;;;;;;;18.60;9.38;;;;;;;-0.84;82.63;102478.06;5018464;28;20041;-48
2021/12/22 08:15:47;;;;;;;20.27;10.90;;;;;;;-0.82;82.70;102471.56;5035646;28;20041;-48
2021/12/22 08:18:14;;;;;;;18.50;10.02;;;;;;;-0.80;82.26;102474.94;5036043;28;20047;-48
2021/12/22 08:20:42;;;;;;;16.75;9.95;;;;;;;-0.78;82.61;102472.13;5037193;28;20050;-48
2021/12/22 08:23:10;;;;;;;17.23;10.23;;;;;;;-0.77;82.02;102476.47;5035941;28;20046;-48
2021/12/22 08:25:38;;;;;;;20.10;9.98;;;;;;;-0.77;82.51;102474.66;5034438;28;20057;-47
2021/12/22 08:28:06;;;;;;;23.58;11.00;;;;;;;-0.80;82.30;102471.41;5035812;28;20041;-48
2021/12/22 08:30:34;;;;;;;18.38;10.65;;;;;;;-0.79;82.98;102470.44;5036069;28;20041;-48
2021/12/22 08:33:09;;;;;;;20.75;10.20;;;;;;;-0.76;82.17;102480.84;5035463;28;20055;-48
2021/12/22 08:38:50;;;;;;;23.35;10.15;;;;;;;-0.76;82.02;102476.31;5034273;28;20476;-45
2021/12/22 08:41:11;;;;;;;22.80;11.55;;;;;;;-0.76;82.43;102480.84;5036365;28;20041;-45
2021/12/22 08:43:39;;;;;;;18.80;11.30;;;;;;;-0.75;82.34;102477.16;5035104;28;20045;-48
2021/12/22 08:46:07;;;;;;;17.90;10.40;;;;;;;-0.75;83.13;102466.44;5035400;28;20049;-48
2021/12/22 08:48:34;;;;;;;20.73;11.10;;;;;;;-0.72;82.81;102468.81;5035122;28;20037;-48
2021/12/22 08:51:02;;;;;;;21.20;11.88;;;;;;;-0.71;82.18;102473.19;5036430;28;20106;-48
2021/12/22 08:53:30;;;;;;;21.48;10.57;;;;;;;-0.72;83.21;102472.34;5035323;28;20464;-48
2021/12/22 08:55:57;;;;;;;18.60;9.73;;;;;;;-0.65;82.93;102468.06;5034850;28;20064;-48
2021/12/22 08:58:25;;;;;;;19.00;10.00;;;;;;;-0.63;82.63;102469.75;5052280;28;20060;-47
2021/12/22 09:00:53;;;;;;;18.42;9.93;;;;;;;-0.63;83.03;102469.75;5054215;28;20068;-48
2021/12/22 09:03:20;;;;;;;19.55;10.23;;;;;;;-0.62;82.43;102460.75;5035309;28;20033;-48
2021/12/22 09:05:48;;;;;;;18.08;10.05;;;;;;;-0.60;82.67;102467.63;5034875;28;20098;-47
2021/12/22 09:08:16;;;;;;;17.05;9.32;;;;;;;-0.59;83.06;102473.81;5035017;28;20092;-48
2021/12/22 09:10:43;;;;;;;18.13;9.90;;;;;;;-0.60;82.90;102472.97;5034620;28;20045;-48
2021/12/22 09:13:13;;;;;;;18.10;8.75;;;;;;;-0.62;82.56;102474.94;5035215;28;20060;-50
2021/12/22 09:15:40;;;;;;;17.00;9.48;;;;;;;-0.63;82.57;102470.56;5034661;28;20041;-47
2021/12/22 09:18:08;;;;;;;15.40;8.40;;;;;;;-0.61;83.56;102471.28;5034968;28;20045;-51
2021/12/22 09:20:36;;;;;;;15.20;9.00;;;;;;;-0.58;83.63;102472.78;5034736;28;20042;-50
2021/12/22 09:23:04;;;;;;;19.20;9.35;;;;;;;-0.54;82.85;102474.19;5045224;28;20357;-49
2021/12/22 09:25:33;;;;;;;19.75;9.20;;;;;;;-0.59;82.42;102480.00;5054620;28;20033;-49
2021/12/22 09:28:02;;;;;;;18.80;9.05;;;;;;;-0.59;82.86;102476.47;5054375;28;20041;-50
2021/12/22 09:30:35;;;;;;;16.70;8.98;;;;;;;-0.66;83.56;102474.41;5054348;28;20083;-49
2021/12/22 09:33:05;;;;;;;18.00;8.80;;;;;;;-0.67;83.88;102478.09;5052819;28;20069;-50
2021/12/22 09:35:34;;;;;;;16.70;8.68;;;;;;;-0.60;84.88;102475.66;5054293;28;20083;-50
2021/12/22 09:38:02;;;;;;;14.27;8.38;;;;;;;-0.55;84.23;102470.66;5054281;28;20116;-50
2021/12/22 09:40:30;;;;;;;17.23;9.00;;;;;;;-0.56;84.02;102471.66;5053256;28;20056;-48
2021/12/22 09:42:58;;;;;;;18.45;8.57;;;;;;;-0.55;83.33;102477.88;5054307;28;20055;-48
2021/12/22 09:45:26;;;;;;;15.25;8.13;;;;;;;-0.53;83.32;102476.72;5052200;28;20049;-49
2021/12/22 09:48:21;;;;;;;17.90;8.90;;;;;;;-0.50;83.18;102475.56;5054068;28;20055;-47
2021/12/22 09:50:54;;;;;;;18.00;8.60;;;;;;;-0.49;83.71;102477.22;5053967;28;20045;-49
2021/12/22 09:53:24;;;;;;;15.90;8.52;;;;;;;-0.46;83.21;102464.41;5052382;28;20045;-50
2021/12/22 09:55:52;;;;;;;17.45;9.15;;;;;;;-0.40;83.88;102460.25;5052830;28;20041;-49
2021/12/22 09:58:21;;;;;;;18.42;8.55;;;;;;;-0.36;83.35;102455.41;5053953;28;20351;-46
2021/12/22 10:00:50;;;;;;;15.25;8.52;;;;;;;-0.33;83.52;102461.31;5053813;28;20057;-48
2021/12/22 10:03:18;;;;;;;14.63;8.50;;;;;;;-0.30;83.11;102454.81;5052674;28;20398;-48
2021/12/22 10:05:46;;;;;;;14.27;8.02;;;;;;;-0.32;82.66;102456.78;5052385;28;20056;-51
2021/12/22 10:08:20;;;;;;;16.27;8.70;;;;;;;-0.32;83.08;102460.31;5053521;28;20040;-52
2021/12/22 10:11:05;;;;;;;14.43;7.50;;;;;;;-0.28;83.39;102464.34;5053517;28;20078;-51
2021/12/22 10:13:34;;;;;;;17.27;8.38;;;;;;;-0.22;83.82;102462.88;5051849;28;20119;-47
2021/12/22 10:16:15;;;;;;;15.27;8.52;;;;;;;-0.18;83.10;102464.25;5052907;28;20045;-49
2021/12/22 10:18:43;;;;;;;15.70;8.02;;;;;;;-0.12;83.12;102457.44;5052987;28;20125;-51
2021/12/22 10:21:18;;;;;;;16.10;8.18;;;;;;;-0.12;83.55;102460.97;5053035;28;20045;-49
2021/12/22 10:23:49;;;;;;;15.85;7.65;;;;;;;-0.09;83.23;102457.97;5051694;28;20071;-49
2021/12/22 10:26:22;;;;;;;17.08;7.97;;;;;;;-0.07;82.97;102449.78;5052873;28;20052;-52
2021/12/22 10:29:05;;;;;;;15.23;7.70;;;;;;;-0.04;83.35;102449.47;5042191;28;20046;-46
2021/12/22 10:31:45;;;;;;;17.58;8.00;;;;;;;-0.01;83.19;102449.97;5033402;28;20052;-49
2021/12/22 10:34:15;;;;;;;14.50;8.55;;;;;;;-0.02;83.18;102444.78;5034321;28;20072;-50
2021/12/22 10:36:51;;;;;;;15.70;8.55;;;;;;;-0.01;83.28;102435.75;5033345;28;20174;-52
2021/12/22 10:39:20;;;;;;;26.85;8.50;;;;;;;0.01;83.77;102430.22;5033446;28;20037;-51
2021/12/22 10:41:48;;;;;;;16.73;7.47;;;;;;;0.06;83.71;102433.28;5033391;28;20049;-50
2021/12/22 10:44:19;;;;;;;21.65;8.38;;;;;;;0.07;83.04;102426.91;5038739;28;20025;-50
2021/12/22 10:46:47;;;;;;;19.05;8.45;;;;;;;0.10;83.61;102418.56;5052911;28;20052;-49
2021/12/22 10:49:23;;;;;;;11.45;7.10;;;;;;;0.09;83.38;102424.91;5036486;28;20056;-48
2021/12/22 10:52:02;;;;;;;26.63;8.25;;;;;;;0.08;83.31;102416.03;5033118;28;20052;-49
2021/12/22 10:54:36;;;;;;;14.50;7.53;;;;;;;0.10;83.00;102418.56;5033929;28;20407;-48
2021/12/22 10:57:07;;;;;;;15.10;7.70;;;;;;;0.13;83.64;102418.25;5032741;28;20046;-47
2021/12/22 10:59:47;;;;;;;15.85;7.70;;;;;;;0.16;83.13;102401.84;5031787;28;20044;-47
2021/12/22 11:02:26;;;;;;;14.90;7.50;;;;;;;0.18;83.15;102400.66;5032587;28;20061;-47
2021/12/22 11:04:55;;;;;;;12.60;7.38;;;;;;;0.22;82.38;102398.53;5033755;28;20055;-49
2021/12/22 11:07:26;;;;;;;12.27;7.35;;;;;;;0.23;82.67;102391.31;5034195;28;20057;-51
2021/12/22 11:09:54;;;;;;;14.85;8.35;;;;;;;0.24;82.07;102395.66;5051284;28;20052;-50
2021/12/22 11:12:40;;;;;;;12.38;7.32;;;;;;;0.27;82.55;102395.38;5052465;28;20041;-48
2021/12/22 11:15:25;;;;;;;16.38;9.45;;;;;;;0.30;82.12;102393.19;5050295;28;20041;-48
2021/12/22 11:17:52;;;;;;;17.55;10.07;;;;;;;0.32;82.17;102385.81;5052698;28;20045;-49
2021/12/22 11:20:23;;;;;;;15.45;8.95;;;;;;;0.35;82.33;102390.03;5051463;28;20060;-51
2021/12/22 11:22:57;;;;;;;15.35;8.20;;;;;;;0.39;82.25;102386.84;5052785;28;20436;-48
2021/12/22 11:25:25;;;;;;;15.25;7.63;;;;;;;0.40;82.41;102385.00;5050654;28;20095;-51
2021/12/22 11:27:54;;;;;;;14.05;8.23;;;;;;;0.42;82.69;102386.53;5043238;28;20045;-49
2021/12/22 11:30:28;;;;;;;13.45;7.78;;;;;;;0.46;82.56;102383.50;5032336;28;20068;-50
2021/12/22 11:32:56;;;;;;;13.98;7.82;;;;;;;0.48;82.53;102378.84;5033339;28;20129;-51
2021/12/22 11:35:24;;;;;;;15.18;8.13;;;;;;;0.52;83.18;102375.66;5032339;28;20107;-48
2021/12/22 11:37:52;;;;;;;12.65;7.68;;;;;;;0.59;83.25;102371.31;5035539;28;20053;-46